Time;durP1;ratioP1;P1;durP2;ratioP2;P2;SDS_P1;SDS_P2;PMS_P1;PMS_P2;Temp;Humidity;BMP_temperature;BMP_pressure;BME280_temperature;BME280_humidity;BME280_pressure;Samples;Min_cycle;Max_cycle;Signal;HPM_P1;HPM_P2
2020/12/01 00:01:53;;;;;;;7.57;4.20;;;1.60;53.00;;;;;;5095644;28;20496;-48
2020/12/01 00:04:20;;;;;;;7.68;4.43;;;1.60;53.10;;;;;;5095506;28;20039;-48
2020/12/01 00:06:46;;;;;;;8.57;4.93;;;1.60;53.20;;;;;;5095844;28;20024;-49
2020/12/01 00:09:13;;;;;;;7.28;4.53;;;1.60;53.00;;;;;;5095474;28;20036;-48
2020/12/01 00:11:39;;;;;;;6.68;3.83;;;1.60;53.00;;;;;;5095448;28;20024;-47
2020/12/01 00:14:05;;;;;;;7.50;4.18;;;1.60;53.00;;;;;;5095362;28;20016;-48
2020/12/01 00:16:31;;;;;;;7.95;4.20;;;1.60;53.00;;;;;;5095349;28;20484;-49
2020/12/01 00:18:58;;;;;;;6.55;3.85;;;1.60;53.00;;;;;;5095410;28;20024;-48
2020/12/01 00:21:24;;;;;;;6.72;3.92;;;1.60;53.00;;;;;;5095297;28;20331;-48
2020/12/01 00:23:50;;;;;;;9.10;4.47;;;1.50;52.80;;;;;;5095005;28;20048;-49
2020/12/01 00:26:17;;;;;;;8.55;4.90;;;1.50;53.10;;;;;;5095187;28;20501;-51
2020/12/01 00:28:47;;;;;;;10.52;5.90;;;1.50;53.10;;;;;;5095389;28;20393;-48
2020/12/01 00:31:15;;;;;;;10.68;6.32;;;1.50;53.00;;;;;;5095419;28;20020;-48
2020/12/01 00:33:41;;;;;;;10.15;6.18;;;1.50;53.00;;;;;;5094880;28;20031;-48
2020/12/01 00:36:07;;;;;;;8.98;5.93;;;1.40;53.10;;;;;;5094830;28;20095;-48
2020/12/01 00:38:33;;;;;;;11.38;6.72;;;1.50;53.20;;;;;;5094988;28;20564;-48
2020/12/01 00:40:59;;;;;;;10.27;6.32;;;1.50;53.20;;;;;;5095236;28;20024;-48
2020/12/01 00:43:25;;;;;;;11.55;5.20;;;1.50;53.10;;;;;;5094703;28;20485;-48
2020/12/01 00:45:51;;;;;;;7.90;4.82;;;1.40;53.10;;;;;;5095044;28;20035;-49
2020/12/01 00:48:17;;;;;;;9.85;5.20;;;1.40;53.10;;;;;;5094656;28;20021;-49
2020/12/01 00:50:44;;;;;;;9.27;5.32;;;1.40;53.30;;;;;;5094755;28;20043;-48
2020/12/01 00:53:11;;;;;;;7.85;4.28;;;1.40;53.20;;;;;;5094657;28;20035;-49
2020/12/01 00:55:37;;;;;;;8.45;4.30;;;1.40;53.40;;;;;;5094529;28;20020;-48
2020/12/01 00:58:04;;;;;;;7.18;4.07;;;1.40;53.20;;;;;;5094726;28;20150;-48
2020/12/01 01:00:31;;;;;;;8.23;4.25;;;1.40;53.30;;;;;;5094459;28;20031;-48
2020/12/01 01:02:57;;;;;;;7.78;4.28;;;1.40;53.40;;;;;;5094402;28;20504;-48
2020/12/01 01:05:23;;;;;;;8.13;3.85;;;1.40;53.50;;;;;;5094403;28;20031;-47
2020/12/01 01:07:50;;;;;;;6.40;3.45;;;1.40;53.50;;;;;;5093302;28;20027;-49
2020/12/01 01:10:26;;;;;;;6.88;3.65;;;1.40;53.60;;;;;;5094275;28;20054;-48
2020/12/01 01:12:52;;;;;;;6.75;3.65;;;1.40;53.60;;;;;;5094549;28;20048;-50
2020/12/01 01:15:19;;;;;;;6.20;3.35;;;1.30;53.50;;;;;;5092962;28;20501;-48
2020/12/01 01:17:44;;;;;;;8.82;3.90;;;1.30;53.50;;;;;;5094393;28;20039;-48
2020/12/01 01:20:11;;;;;;;6.63;3.70;;;1.30;53.30;;;;;;5094340;28;20562;-50
2020/12/01 01:22:38;;;;;;;7.85;3.60;;;1.30;53.60;;;;;;5093932;28;20036;-48
2020/12/01 01:25:05;;;;;;;6.10;3.88;;;1.30;53.60;;;;;;5093904;28;20032;-50
2020/12/01 01:27:31;;;;;;;6.05;3.72;;;1.20;53.60;;;;;;5093960;28;20032;-48
2020/12/01 01:29:56;;;;;;;6.68;3.53;;;1.20;53.50;;;;;;5093938;28;20409;-48
2020/12/01 01:32:22;;;;;;;5.70;3.33;;;1.30;53.60;;;;;;5093807;28;20078;-49
2020/12/01 01:34:48;;;;;;;5.07;3.17;;;1.20;53.40;;;;;;5093775;28;20035;-49
2020/12/01 01:37:14;;;;;;;8.07;4.00;;;1.20;53.40;;;;;;5093661;28;20064;-47
2020/12/01 01:39:40;;;;;;;6.22;3.17;;;1.20;53.40;;;;;;5093776;28;20023;-49
2020/12/01 01:42:07;;;;;;;6.47;3.60;;;1.20;53.60;;;;;;5094106;28;20032;-49
2020/12/01 01:44:34;;;;;;;6.00;3.17;;;1.20;53.50;;;;;;5093931;28;20038;-50
2020/12/01 01:47:09;;;;;;;7.68;3.42;;;1.20;53.40;;;;;;5093655;28;20497;-47
2020/12/01 01:49:40;;;;;;;6.05;3.78;;;1.20;53.40;;;;;;5094124;28;20072;-49
2020/12/01 01:52:23;;;;;;;5.53;3.65;;;1.20;53.50;;;;;;5093588;28;20016;-48
2020/12/01 01:54:57;;;;;;;6.32;3.38;;;1.20;53.60;;;;;;5093552;28;20557;-48
2020/12/01 01:57:24;;;;;;;7.65;3.25;;;1.20;53.60;;;;;;5093581;28;20032;-51
2020/12/01 01:59:50;;;;;;;6.15;3.40;;;1.20;53.70;;;;;;5093714;28;20110;-49
2020/12/01 02:02:16;;;;;;;7.18;3.38;;;1.20;53.70;;;;;;5093363;28;20028;-49
2020/12/01 02:04:42;;;;;;;5.18;3.22;;;1.10;53.40;;;;;;5093390;28;20111;-51
2020/12/01 02:07:08;;;;;;;4.40;2.83;;;1.10;53.50;;;;;;5093322;28;20028;-48
2020/12/01 02:09:45;;;;;;;8.98;3.28;;;1.10;53.60;;;;;;5093281;28;20028;-48
2020/12/01 02:12:14;;;;;;;5.60;3.13;;;1.10;53.60;;;;;;5093552;28;20028;-49
2020/12/01 02:14:48;;;;;;;29.17;4.55;;;1.10;53.50;;;;;;5093502;28;20379;-50
2020/12/01 02:17:35;;;;;;;6.07;3.10;;;1.10;53.50;;;;;;5093220;28;20032;-48
2020/12/01 02:20:09;;;;;;;5.68;3.28;;;1.00;53.40;;;;;;5093166;28;20427;-47
2020/12/01 02:22:35;;;;;;;6.30;3.20;;;1.00;53.90;;;;;;5093049;28;20048;-49
2020/12/01 02:25:03;;;;;;;5.93;3.42;;;1.00;53.50;;;;;;5093136;28;20036;-50
2020/12/01 02:27:28;;;;;;;7.55;3.90;;;1.00;53.50;;;;;;5093137;28;20028;-49
2020/12/01 02:29:58;;;;;;;11.00;5.15;;;1.00;53.70;;;;;;5093389;28;20020;-52
2020/12/01 02:32:26;;;;;;;12.32;4.80;;;1.00;53.70;;;;;;5093376;28;20036;-50
2020/12/01 02:34:55;;;;;;;9.52;4.72;;;1.00;53.70;;;;;;5093011;28;20035;-49
2020/12/01 02:37:24;;;;;;;12.93;5.07;;;1.00;53.70;;;;;;5092951;28;20016;-47
2020/12/01 02:39:51;;;;;;;17.35;6.40;;;1.00;53.70;;;;;;5093027;28;20020;-49
2020/12/01 02:42:24;;;;;;;25.02;9.13;;;1.00;53.70;;;;;;5093277;28;20473;-52
2020/12/01 02:44:51;;;;;;;26.92;9.73;;;1.00;53.70;;;;;;5093210;28;20040;-52
2020/12/01 02:47:17;;;;;;;26.35;8.88;;;0.90;53.70;;;;;;5093151;28;20560;-49
2020/12/01 02:49:43;;;;;;;14.82;5.97;;;0.90;53.80;;;;;;5093239;28;20115;-47
2020/12/01 02:52:08;;;;;;;26.58;9.32;;;0.90;53.80;;;;;;5092837;28;20078;-51
2020/12/01 02:54:34;;;;;;;9.68;4.20;;;0.90;53.80;;;;;;5092893;28;20032;-48
2020/12/01 02:57:00;;;;;;;7.70;3.63;;;0.90;53.80;;;;;;5092792;28;20031;-48
2020/12/01 02:59:26;;;;;;;11.48;3.95;;;0.90;53.80;;;;;;5092897;28;20031;-46
2020/12/01 03:01:52;;;;;;;12.27;5.13;;;0.90;53.80;;;;;;5092878;28;20059;-48
2020/12/01 03:04:18;;;;;;;10.70;4.78;;;0.90;53.80;;;;;;5092975;28;20112;-47
2020/12/01 03:06:44;;;;;;;7.47;4.05;;;0.90;53.70;;;;;;5092944;28;20051;-50
2020/12/01 03:09:14;;;;;;;7.05;3.40;;;0.90;53.70;;;;;;5093041;28;20070;-48
2020/12/01 03:11:40;;;;;;;8.60;3.40;;;0.90;53.70;;;;;;5092917;28;20080;-50
2020/12/01 03:14:06;;;;;;;8.52;3.75;;;0.90;53.60;;;;;;5092777;28;20024;-48
2020/12/01 03:16:32;;;;;;;7.10;3.53;;;0.80;53.80;;;;;;5092724;28;20028;-46
2020/12/01 03:18:58;;;;;;;6.65;3.60;;;0.80;53.70;;;;;;5092936;28;20024;-47
2020/12/01 03:21:23;;;;;;;6.45;3.28;;;0.80;54.00;;;;;;5092525;28;20511;-47
2020/12/01 03:23:49;;;;;;;5.97;3.47;;;0.80;54.20;;;;;;5092387;28;20040;-47
2020/12/01 03:26:17;;;;;;;7.35;3.63;;;0.80;54.20;;;;;;5092556;28;20136;-48
2020/12/01 03:28:44;;;;;;;6.13;3.25;;;0.80;54.50;;;;;;5092873;28;20418;-48
2020/12/01 03:31:13;;;;;;;8.00;3.78;;;0.90;54.70;;;;;;5094725;28;20378;-48
2020/12/01 03:33:39;;;;;;;6.60;3.42;;;0.90;54.70;;;;;;5096080;28;20430;-47
2020/12/01 03:36:05;;;;;;;7.55;3.55;;;0.80;54.70;;;;;;5096096;28;20024;-48
2020/12/01 03:38:31;;;;;;;6.65;3.22;;;0.80;54.50;;;;;;5096447;28;20081;-53
2020/12/01 03:40:57;;;;;;;5.22;2.58;;;0.80;54.50;;;;;;5096309;28;20024;-48
2020/12/01 03:43:23;;;;;;;6.18;3.08;;;0.80;54.40;;;;;;5096280;28;20024;-48
2020/12/01 03:45:49;;;;;;;6.70;3.40;;;0.80;54.40;;;;;;5095918;28;20024;-48
2020/12/01 03:48:15;;;;;;;8.85;4.40;;;0.70;54.50;;;;;;5095856;28;20016;-47
2020/12/01 03:50:42;;;;;;;11.82;4.60;;;0.70;54.60;;;;;;5095904;28;20055;-48
2020/12/01 03:53:08;;;;;;;10.13;4.70;;;0.70;54.60;;;;;;5095898;28;20027;-48
2020/12/01 03:55:34;;;;;;;10.85;5.28;;;0.70;54.80;;;;;;5096126;28;20023;-48
2020/12/01 03:58:00;;;;;;;9.82;5.20;;;0.70;55.00;;;;;;5095857;28;20487;-46
2020/12/01 04:00:28;;;;;;;13.43;5.90;;;0.70;54.80;;;;;;5095585;28;20561;-48
2020/12/01 04:02:55;;;;;;;12.20;5.63;;;0.70;54.90;;;;;;5095663;28;20039;-47
2020/12/01 04:05:23;;;;;;;11.38;5.78;;;0.70;54.90;;;;;;5095549;28;20024;-49
2020/12/01 04:07:51;;;;;;;12.95;5.68;;;0.70;54.90;;;;;;5095428;28;20039;-49
2020/12/01 04:10:18;;;;;;;11.55;5.45;;;0.60;54.70;;;;;;5095669;28;20077;-47
2020/12/01 04:12:44;;;;;;;9.85;5.43;;;0.70;54.70;;;;;;5095396;28;20362;-48
2020/12/01 04:15:11;;;;;;;11.57;5.18;;;0.70;54.80;;;;;;5095678;28;20073;-51
2020/12/01 04:17:37;;;;;;;6.13;2.78;;;0.60;54.60;;;;;;5095396;28;20038;-48
2020/12/01 04:20:07;;;;;;;10.32;4.00;;;0.60;54.60;;;;;;5095571;28;20103;-50
2020/12/01 04:22:33;;;;;;;9.90;3.90;;;0.60;54.60;;;;;;5095182;28;20036;-49
2020/12/01 04:25:00;;;;;;;5.68;3.85;;;0.60;54.60;;;;;;5095188;28;20561;-47
2020/12/01 04:27:26;;;;;;;6.97;3.47;;;0.60;54.50;;;;;;5095177;28;20051;-48
2020/12/01 04:29:52;;;;;;;8.07;3.20;;;0.60;54.20;;;;;;5095192;28;20055;-48
2020/12/01 04:32:18;;;;;;;5.72;2.88;;;0.60;54.20;;;;;;5095305;28;20392;-50
2020/12/01 04:34:44;;;;;;;5.32;3.08;;;0.60;54.20;;;;;;5095127;28;20384;-48
2020/12/01 04:37:10;;;;;;;5.07;3.10;;;0.60;54.20;;;;;;5094961;28;20100;-48
2020/12/01 04:39:36;;;;;;;5.13;2.50;;;0.60;54.20;;;;;;5095300;28;20031;-48
2020/12/01 04:42:03;;;;;;;6.65;2.55;;;0.60;54.20;;;;;;5093501;28;20032;-48
2020/12/01 04:44:41;;;;;;;5.63;3.03;;;0.60;54.20;;;;;;5094907;28;20363;-47
2020/12/01 04:47:21;;;;;;;4.80;2.85;;;0.60;54.20;;;;;;5094767;28;20016;-47
2020/12/01 04:50:01;;;;;;;5.95;3.00;;;0.60;54.10;;;;;;5094782;28;20028;-48
2020/12/01 04:52:39;;;;;;;8.27;3.97;;;0.60;54.30;;;;;;5094644;28;20024;-48
2020/12/01 04:55:33;;;;;;;6.40;3.78;;;0.60;54.40;;;;;;5094737;28;20059;-49
2020/12/01 04:58:44;;;;;;;9.07;4.03;;;0.60;54.40;;;;;;5094889;28;20049;-51
2020/12/01 05:01:18;;;;;;;7.72;3.80;;;0.60;54.40;;;;;;5094859;28;20024;-47
2020/12/01 05:04:35;;;;;;;6.95;3.90;;;0.60;54.80;;;;;;5094423;28;20036;-51
2020/12/01 05:07:30;;;;;;;8.80;4.18;;;0.60;54.80;;;;;;5093099;28;20448;-49
2020/12/01 05:10:00;;;;;;;10.35;4.75;;;0.60;54.90;;;;;;5094476;28;20025;-47
2020/12/01 05:12:36;;;;;;;8.30;4.10;;;0.60;54.80;;;;;;5094319;28;20503;-49
2020/12/01 05:15:33;;;;;;;6.93;3.25;;;0.60;54.90;;;;;;5094270;28;20095;-48
2020/12/01 05:18:15;;;;;;;5.80;3.70;;;0.50;54.70;;;;;;5094193;28;20145;-48
2020/12/01 05:21:05;;;;;;;9.23;3.58;;;0.50;54.70;;;;;;5094120;28;20028;-48
2020/12/01 05:23:49;;;;;;;9.50;3.95;;;0.50;54.70;;;;;;5094057;28;20101;-53
2020/12/01 05:26:21;;;;;;;7.00;3.78;;;0.50;54.60;;;;;;5094098;28;20445;-47
2020/12/01 05:28:54;;;;;;;13.30;4.35;;;0.50;54.70;;;;;;5094160;28;20039;-50
2020/12/01 05:31:25;;;;;;;8.40;3.80;;;0.50;54.70;;;;;;5093964;28;20026;-47
2020/12/01 05:34:02;;;;;;;7.20;3.40;;;0.50;54.70;;;;;;5094134;28;20484;-53
2020/12/01 05:36:34;;;;;;;8.88;4.03;;;0.40;54.60;;;;;;5094068;28;20093;-47
2020/12/01 05:39:02;;;;;;;14.57;4.60;;;0.50;54.70;;;;;;5093776;28;20054;-49
2020/12/01 05:41:31;;;;;;;10.90;3.70;;;0.40;54.60;;;;;;5093768;28;20081;-48
2020/12/01 05:44:01;;;;;;;8.98;3.83;;;0.40;54.60;;;;;;5093984;28;20377;-49
2020/12/01 05:46:42;;;;;;;19.88;4.20;;;0.40;54.40;;;;;;5093604;28;20032;-48
2020/12/01 05:49:29;;;;;;;20.88;3.80;;;0.40;54.50;;;;;;5094025;28;20032;-46
2020/12/01 05:52:29;;;;;;;7.80;3.25;;;0.40;54.40;;;;;;5093600;28;20054;-48
2020/12/01 05:55:16;;;;;;;9.95;4.03;;;0.40;54.40;;;;;;5093264;28;20053;-48
2020/12/01 05:57:42;;;;;;;15.65;5.32;;;0.40;54.40;;;;;;5093704;28;20103;-48
2020/12/01 06:00:18;;;;;;;21.80;5.03;;;0.40;54.50;;;;;;5093629;28;20028;-46
2020/12/01 06:02:50;;;;;;;7.90;3.75;;;0.40;54.60;;;;;;5093253;28;20491;-48
2020/12/01 06:05:22;;;;;;;6.47;4.07;;;0.40;54.60;;;;;;5093424;28;20070;-50
2020/12/01 06:07:50;;;;;;;14.25;4.28;;;0.40;54.60;;;;;;5093435;28;20032;-47
2020/12/01 06:10:18;;;;;;;19.05;5.95;;;0.40;54.70;;;;;;5093662;28;20377;-48
2020/12/01 06:13:09;;;;;;;37.88;7.00;;;0.40;54.70;;;;;;5093585;28;20051;-53
2020/12/01 06:15:41;;;;;;;20.23;5.13;;;0.40;54.70;;;;;;5093354;28;20085;-51
2020/12/01 06:18:25;;;;;;;17.50;6.25;;;0.50;54.70;;;;;;5093629;28;20028;-51
2020/12/01 06:21:01;;;;;;;14.52;4.95;;;0.40;54.70;;;;;;5093244;28;20027;-50
2020/12/01 06:23:32;;;;;;;11.75;6.53;;;0.40;54.70;;;;;;5092874;28;20052;-47
2020/12/01 06:26:29;;;;;;;9.43;4.88;;;0.40;54.80;;;;;;5093281;28;20024;-48
2020/12/01 06:29:48;;;;;;;17.98;5.70;;;0.40;54.80;;;;;;5093029;28;20036;-46
2020/12/01 06:32:38;;;;;;;11.73;4.55;;;0.40;54.80;;;;;;5087041;28;20417;-54
2020/12/01 06:35:34;;;;;;;8.98;4.43;;;0.30;55.00;;;;;;5072699;28;20086;-50
2020/12/01 06:38:08;;;;;;;20.05;4.88;;;0.30;55.10;;;;;;5072781;28;20040;-52
2020/12/01 06:40:39;;;;;;;12.38;4.70;;;0.40;55.10;;;;;;5072845;28;20116;-50
2020/12/01 06:43:15;;;;;;;11.57;5.07;;;0.40;55.20;;;;;;5073061;28;20141;-48
2020/12/01 06:45:48;;;;;;;22.90;6.50;;;0.40;55.20;;;;;;5081241;28;20031;-47
2020/12/01 06:48:26;;;;;;;19.42;6.50;;;0.40;55.30;;;;;;5086235;28;20055;-49
2020/12/01 06:50:55;;;;;;;17.33;6.93;;;0.40;55.60;;;;;;5073009;28;20036;-52
2020/12/01 06:53:32;;;;;;;16.48;7.43;;;0.40;55.60;;;;;;5072380;28;20017;-52
2020/12/01 06:56:07;;;;;;;23.30;7.82;;;0.40;55.50;;;;;;5072771;28;20036;-50
2020/12/01 06:58:39;;;;;;;11.77;5.63;;;0.50;55.50;;;;;;5072572;28;20540;-54
2020/12/01 07:01:22;;;;;;;9.95;5.20;;;0.40;55.40;;;;;;5072609;28;20054;-48
2020/12/01 07:04:01;;;;;;;11.85;6.45;;;0.50;55.40;;;;;;5073009;28;20041;-47
2020/12/01 07:06:26;;;;;;;13.73;8.63;;;0.50;55.40;;;;;;5075082;28;20024;-48
2020/12/01 07:09:03;;;;;;;17.25;7.13;;;0.50;55.50;;;;;;5076560;28;20029;-51
2020/12/01 07:11:32;;;;;;;24.20;9.13;;;0.50;55.50;;;;;;5076168;28;20021;-49
2020/12/01 07:14:12;;;;;;;25.48;12.07;;;0.50;55.50;;;;;;5076264;28;20032;-51
2020/12/01 07:16:45;;;;;;;25.40;10.23;;;0.50;55.70;;;;;;5076260;28;20173;-48
2020/12/01 07:19:43;;;;;;;36.95;13.77;;;0.50;55.50;;;;;;5076655;28;20047;-51
2020/12/01 07:22:34;;;;;;;50.92;16.83;;;0.50;55.50;;;;;;5074592;28;20051;-46
2020/12/01 07:25:21;;;;;;;27.25;12.68;;;0.60;55.30;;;;;;5076082;28;20125;-51
2020/12/01 07:27:54;;;;;;;36.80;12.05;;;0.60;55.70;;;;;;5076051;28;20025;-50
2020/12/01 07:30:27;;;;;;;37.35;14.85;;;0.60;55.50;;;;;;5075880;28;20111;-53
2020/12/01 07:32:59;;;;;;;42.70;14.52;;;0.60;55.30;;;;;;5087288;28;20024;-48
2020/12/01 07:35:36;;;;;;;;;;;0.70;55.40;;;;;;5076555;28;20024;-48
2020/12/01 07:38:19;;;;;;;25.20;7.95;;;0.70;55.60;;;;;;5075846;28;19962;-46
2020/12/01 07:40:49;;;;;;;21.15;8.75;;;0.70;55.50;;;;;;5081282;28;20069;-47
2020/12/01 07:43:17;;;;;;;22.10;7.93;;;0.70;55.60;;;;;;5095982;28;20404;-49
2020/12/01 07:45:44;;;;;;;12.32;6.82;;;0.70;55.20;;;;;;5096013;28;20024;-46
2020/12/01 07:48:18;;;;;;;17.80;7.25;;;0.80;55.30;;;;;;5095729;28;20023;-52
2020/12/01 07:50:44;;;;;;;16.27;6.53;;;0.80;55.10;;;;;;5095859;28;20021;-49
2020/12/01 07:53:17;;;;;;;28.58;8.73;;;0.80;55.20;;;;;;5095871;28;20377;-48
2020/12/01 07:56:00;;;;;;;42.67;9.52;;;0.80;55.30;;;;;;5096167;28;20082;-47
2020/12/01 07:58:28;;;;;;;44.83;8.38;;;0.90;55.60;;;;;;5095767;28;20056;-49
2020/12/01 08:01:01;;;;;;;21.88;6.97;;;0.80;55.60;;;;;;5095965;28;20096;-51
2020/12/01 08:03:36;;;;;;;30.77;7.00;;;0.90;55.50;;;;;;5095553;28;20028;-48
2020/12/01 08:06:05;;;;;;;50.50;8.27;;;0.90;55.50;;;;;;5095809;28;20016;-51
2020/12/01 08:08:37;;;;;;;14.60;5.88;;;0.90;55.40;;;;;;5095777;28;20048;-47
2020/12/01 08:11:07;;;;;;;;;;;1.00;55.50;;;;;;5096090;28;20070;-47
2020/12/01 08:13:35;;;;;;;27.70;12.10;;;1.00;55.50;;;;;;5095720;28;19910;-52
2020/12/01 08:16:09;;;;;;;37.65;15.77;;;1.00;55.00;;;;;;5095143;28;20028;-50
2020/12/01 08:18:35;;;;;;;22.33;12.45;;;1.10;55.10;;;;;;5095419;28;20062;-49
2020/12/01 08:21:01;;;;;;;42.55;11.80;;;1.10;54.80;;;;;;5095392;28;20024;-48
2020/12/01 08:23:30;;;;;;;21.45;8.57;;;1.30;54.60;;;;;;5095053;28;20063;-49
2020/12/01 08:26:27;;;;;;;16.75;8.82;;;1.30;54.20;;;;;;5095592;28;20024;-47
2020/12/01 08:29:19;;;;;;;32.25;10.35;;;1.30;54.20;;;;;;5095239;28;20032;-49
2020/12/01 08:31:51;;;;;;;25.67;12.18;;;1.30;55.00;;;;;;5095153;28;20073;-48
2020/12/01 08:34:45;;;;;;;20.58;9.95;;;1.40;55.00;;;;;;5095394;28;20089;-48
2020/12/01 08:37:29;;;;;;;16.17;7.93;;;1.40;54.50;;;;;;5095237;28;20176;-48
2020/12/01 08:39:58;;;;;;;13.38;8.02;;;1.50;54.50;;;;;;5095380;28;20083;-48
2020/12/01 08:42:48;;;;;;;20.63;8.98;;;1.60;54.50;;;;;;5088474;28;20043;-48
2020/12/01 08:45:14;;;;;;;21.10;8.75;;;1.70;53.70;;;;;;5095027;28;20064;-49
2020/12/01 08:47:43;;;;;;;22.27;11.80;;;1.70;53.60;;;;;;5095033;28;20051;-48
2020/12/01 08:50:22;;;;;;;15.43;9.90;;;1.80;53.50;;;;;;5094778;28;20035;-50
2020/12/01 08:52:49;;;;;;;93.65;14.90;;;1.80;53.70;;;;;;5094689;28;20028;-48
2020/12/01 08:55:31;;;;;;;27.42;9.80;;;1.90;53.80;;;;;;5094953;28;20028;-53
2020/12/01 08:58:15;;;;;;;18.80;8.95;;;2.00;53.50;;;;;;5094612;28;20081;-49
2020/12/01 09:01:01;;;;;;;18.27;8.80;;;2.10;52.80;;;;;;5094737;28;20078;-50
2020/12/01 09:03:29;;;;;;;22.08;9.15;;;2.10;53.20;;;;;;5094648;28;20024;-49
2020/12/01 09:05:56;;;;;;;23.80;8.52;;;2.10;53.70;;;;;;5094409;28;20128;-50
2020/12/01 09:17:07;;;;;;;12.93;8.10;;;2.40;53.70;;;;;;5107682;22;20046;-49
2020/12/01 09:22:11;;;;;;;17.13;9.68;;;2.50;52.80;;;;;;5114611;27;20023;-51
2020/12/01 09:24:38;;;;;;;16.07;9.37;;;2.50;53.40;;;;;;5114759;27;20088;-53
2020/12/01 09:27:11;;;;;;;19.88;9.10;;;2.60;53.30;;;;;;5114740;28;20034;-52
2020/12/01 09:29:38;;;;;;;15.07;8.63;;;2.60;53.40;;;;;;5113592;28;20496;-46
2020/12/01 09:32:06;;;;;;;13.68;8.00;;;2.70;53.20;;;;;;5114318;28;20023;-48
2020/12/01 09:34:34;;;;;;;16.85;8.85;;;2.70;53.20;;;;;;5103630;28;20485;-48
2020/12/01 09:37:02;;;;;;;21.50;11.30;;;2.90;52.00;;;;;;5094203;28;20024;-48
2020/12/01 09:39:31;;;;;;;19.15;10.20;;;2.80;52.80;;;;;;5094013;28;20473;-54
2020/12/01 09:47:13;;;;;;;21.25;8.95;;;3.10;51.70;;;;;;5093564;28;20021;-45
2020/12/01 09:49:39;;;;;;;22.33;8.95;;;3.10;51.60;;;;;;5093502;28;20036;-49
2020/12/01 09:52:13;;;;;;;19.30;9.13;;;3.10;52.10;;;;;;5093556;28;20062;-49
2020/12/01 09:54:48;;;;;;;15.82;9.57;;;3.10;52.30;;;;;;5093626;28;20089;-49
2020/12/01 10:00:56;;;;;;;15.70;8.55;;;3.20;51.50;;;;;;5093890;28;20059;-50
2020/12/01 10:20:05;;;;;;;11.25;6.85;;;3.70;49.50;;;;;;5093641;28;20032;-49
2020/12/01 10:37:08;;;;;;;18.92;9.95;;;3.90;49.20;;;;;;5092961;28;20056;-50
2020/12/01 10:39:34;;;;;;;28.85;9.90;;;4.10;49.30;;;;;;5094455;28;20405;-49
2020/12/01 10:42:05;;;;;;;13.60;8.07;;;4.00;49.80;;;;;;5097219;28;20016;-49
2020/12/01 10:44:31;;;;;;;16.03;8.57;;;4.10;48.90;;;;;;5097510;28;20093;-50
2020/12/01 10:46:57;;;;;;;16.13;7.57;;;4.20;49.30;;;;;;5097306;28;20500;-51
2020/12/01 10:49:23;;;;;;;11.57;7.07;;;4.20;49.10;;;;;;5097093;28;20032;-50
2020/12/01 10:51:50;;;;;;;13.77;8.07;;;4.20;49.10;;;;;;5097017;28;20032;-48
2020/12/01 10:54:17;;;;;;;14.23;8.52;;;4.30;48.10;;;;;;5095058;28;20027;-54
2020/12/01 10:56:46;;;;;;;16.80;8.65;;;4.30;48.50;;;;;;5097254;28;20189;-50
2020/12/01 10:59:12;;;;;;;13.32;8.93;;;4.30;48.30;;;;;;5097070;28;20099;-50
2020/12/01 11:01:38;;;;;;;13.68;8.35;;;4.40;47.90;;;;;;5096768;28;20104;-50
2020/12/01 11:04:04;;;;;;;14.93;9.15;;;4.50;48.70;;;;;;5096844;28;20054;-48
2020/12/01 11:06:31;;;;;;;16.38;9.10;;;4.50;48.40;;;;;;5096840;28;20020;-51
2020/12/01 11:08:57;;;;;;;15.73;8.93;;;4.60;47.90;;;;;;5096680;28;20473;-54
2020/12/01 11:11:23;;;;;;;14.63;9.00;;;4.70;48.30;;;;;;5096660;28;20504;-50
2020/12/01 11:13:49;;;;;;;19.38;9.38;;;4.70;47.30;;;;;;5096570;28;20024;-49
2020/12/01 11:16:15;;;;;;;16.35;8.88;;;4.70;47.20;;;;;;5096248;28;20020;-49
2020/12/01 11:18:41;;;;;;;17.80;9.50;;;4.70;47.70;;;;;;5096832;28;20032;-48
2020/12/01 11:21:07;;;;;;;15.05;9.30;;;4.80;47.30;;;;;;5096446;28;20031;-48
2020/12/01 11:23:33;;;;;;;17.60;9.43;;;4.90;47.10;;;;;;5085707;28;20044;-48
2020/12/01 11:25:59;;;;;;;17.55;10.85;;;4.90;47.10;;;;;;5095557;28;20039;-51
2020/12/01 11:28:25;;;;;;;13.60;10.13;;;5.00;47.00;;;;;;5095684;28;20056;-48
2020/12/01 11:30:51;;;;;;;14.23;9.27;;;5.00;47.10;;;;;;5094735;28;20035;-47
2020/12/01 11:33:17;;;;;;;21.17;11.20;;;5.00;47.30;;;;;;5087535;28;20073;-46
2020/12/01 11:35:43;;;;;;;17.38;10.65;;;5.10;47.00;;;;;;5096221;28;20031;-53
2020/12/01 11:38:09;;;;;;;24.08;10.35;;;5.10;47.10;;;;;;5096278;28;20020;-51
2020/12/01 11:40:35;;;;;;;16.67;9.63;;;5.00;47.30;;;;;;5089373;28;20089;-51
2020/12/01 11:43:01;;;;;;;19.02;11.30;;;5.10;46.90;;;;;;5075737;28;20457;-49
2020/12/01 11:45:26;;;;;;;19.30;10.95;;;5.20;46.00;;;;;;5077976;28;20111;-48
2020/12/01 11:47:53;;;;;;;18.20;11.15;;;5.20;47.10;;;;;;5091977;28;20384;-48
2020/12/01 11:50:19;;;;;;;13.23;9.73;;;5.20;47.30;;;;;;5095848;28;20031;-49
2020/12/01 11:52:45;;;;;;;15.93;10.65;;;5.20;47.30;;;;;;5095335;28;20060;-50
2020/12/01 11:55:11;;;;;;;15.85;10.65;;;5.30;47.10;;;;;;5095638;28;20040;-49
2020/12/01 11:57:37;;;;;;;16.45;10.57;;;5.30;46.70;;;;;;5095691;28;20020;-50
2020/12/01 12:00:05;;;;;;;20.92;10.65;;;5.30;46.80;;;;;;5095829;28;20028;-50
2020/12/01 12:02:31;;;;;;;18.73;11.32;;;5.40;46.60;;;;;;5095634;28;20024;-49
2020/12/01 12:04:57;;;;;;;18.35;10.75;;;5.40;46.60;;;;;;5095877;28;20044;-49
2020/12/01 12:07:23;;;;;;;21.27;11.13;;;5.40;46.60;;;;;;5095597;28;20554;-48
2020/12/01 12:09:49;;;;;;;16.20;10.18;;;5.50;45.60;;;;;;5095948;28;20048;-50
2020/12/01 12:12:16;;;;;;;14.70;9.77;;;5.50;45.80;;;;;;5095589;28;20381;-52
2020/12/01 12:14:42;;;;;;;20.65;10.75;;;5.60;45.50;;;;;;5095396;28;20024;-49
2020/12/01 12:17:10;;;;;;;18.30;10.23;;;5.60;45.90;;;;;;5095355;28;20051;-49
2020/12/01 12:19:37;;;;;;;19.10;11.68;;;5.60;45.40;;;;;;5095387;28;20420;-50
2020/12/01 12:22:03;;;;;;;16.63;10.52;;;5.60;46.00;;;;;;5095308;28;20069;-48
2020/12/01 12:24:29;;;;;;;17.60;10.02;;;5.60;45.50;;;;;;5095122;28;20481;-49
2020/12/01 12:26:55;;;;;;;26.67;11.75;;;5.70;45.60;;;;;;5095231;28;20024;-47
2020/12/01 12:29:24;;;;;;;15.55;9.82;;;5.60;45.70;;;;;;5095114;28;20027;-49
2020/12/01 12:31:50;;;;;;;23.05;11.13;;;5.70;45.60;;;;;;5092043;28;20028;-49
2020/12/01 12:34:17;;;;;;;19.50;10.48;;;5.70;45.80;;;;;;5092519;28;20412;-50
2020/12/01 12:36:43;;;;;;;16.70;10.98;;;5.70;45.70;;;;;;5094985;28;20024;-50
2020/12/01 12:39:10;;;;;;;21.42;9.77;;;5.70;45.80;;;;;;5094824;28;20095;-50
2020/12/01 12:41:36;;;;;;;27.08;10.88;;;5.70;45.90;;;;;;5080513;28;20496;-52
2020/12/01 12:44:04;;;;;;;16.58;9.52;;;5.70;46.30;;;;;;5074646;28;20123;-50
2020/12/01 12:46:30;;;;;;;15.10;9.40;;;5.70;46.00;;;;;;5074715;28;20469;-48
2020/12/01 12:48:56;;;;;;;17.17;10.68;;;5.70;46.20;;;;;;5074464;28;20107;-55
2020/12/01 12:51:22;;;;;;;27.42;10.52;;;5.80;45.40;;;;;;5074360;28;20120;-48
2020/12/01 12:53:48;;;;;;;15.82;10.65;;;5.80;45.30;;;;;;5074523;28;20546;-48
2020/12/01 12:56:15;;;;;;;20.55;11.05;;;5.80;45.30;;;;;;5074445;28;20028;-49
2020/12/01 12:58:41;;;;;;;20.77;11.95;;;5.80;45.60;;;;;;5074421;28;20032;-49
2020/12/01 13:01:07;;;;;;;21.02;11.52;;;5.80;45.40;;;;;;5074182;28;20032;-53
2020/12/01 13:03:33;;;;;;;23.42;11.68;;;5.80;45.00;;;;;;5074157;28;20039;-50
2020/12/01 13:05:59;;;;;;;23.08;11.57;;;5.90;45.00;;;;;;5074598;28;20025;-50
2020/12/01 13:08:27;;;;;;;20.40;10.80;;;5.90;45.00;;;;;;5076767;28;20177;-48
2020/12/01 13:10:54;;;;;;;18.27;10.20;;;5.80;45.40;;;;;;5085747;28;20032;-48
2020/12/01 13:13:25;;;;;;;21.40;11.50;;;5.80;45.10;;;;;;5074456;28;20029;-49
2020/12/01 13:15:53;;;;;;;21.40;10.55;;;5.80;45.10;;;;;;5093971;28;20161;-49
2020/12/01 13:18:20;;;;;;;18.25;10.70;;;5.80;45.10;;;;;;5092347;28;20052;-49
2020/12/01 13:20:46;;;;;;;19.65;12.35;;;5.80;45.40;;;;;;5092803;28;20111;-50
2020/12/01 13:23:12;;;;;;;18.73;11.35;;;5.90;45.30;;;;;;5093580;28;20036;-49
2020/12/01 13:25:38;;;;;;;20.05;11.82;;;5.80;45.60;;;;;;5093898;28;20101;-48
2020/12/01 13:28:05;;;;;;;19.98;12.52;;;5.80;45.60;;;;;;5093876;28;20164;-47
2020/12/01 13:30:31;;;;;;;19.20;11.32;;;5.80;45.30;;;;;;5094037;28;20070;-49
2020/12/01 13:33:05;;;;;;;18.77;12.38;;;5.80;45.30;;;;;;5093996;28;20028;-49
2020/12/01 13:35:35;;;;;;;27.65;13.40;;;5.80;45.10;;;;;;5093373;28;20082;-50
2020/12/01 13:38:04;;;;;;;20.13;12.82;;;5.70;45.20;;;;;;5093385;28;20036;-51
2020/12/01 13:40:32;;;;;;;22.23;13.00;;;5.70;45.40;;;;;;5093688;28;20031;-48
2020/12/01 13:43:03;;;;;;;20.77;13.00;;;5.70;45.30;;;;;;5093991;28;20101;-53
2020/12/01 13:45:33;;;;;;;20.57;12.63;;;5.70;45.00;;;;;;5094019;28;20020;-50
2020/12/01 13:48:05;;;;;;;21.23;12.25;;;5.70;45.70;;;;;;5093650;28;20055;-49
2020/12/01 13:50:31;;;;;;;25.15;12.25;;;5.70;45.80;;;;;;5093990;28;20020;-48
2020/12/01 13:53:05;;;;;;;19.35;12.88;;;5.60;45.90;;;;;;5093625;28;20460;-54
2020/12/01 13:55:36;;;;;;;22.00;13.57;;;5.60;45.30;;;;;;5092350;28;20028;-55
2020/12/01 13:58:02;;;;;;;20.08;12.43;;;5.60;45.30;;;;;;5093532;28;20362;-50